sensor_id;sensor_type;location;lat;lon;timestamp;pressure;altitude;pressure_sealevel;temperature;humidity
72525;BME280;60547;48.502;8.996;2023-04-05T00:00:51;98442.72;;;0.79;64.62
72525;BME280;60547;48.502;8.996;2023-04-05T00:03:18;98445.81;;;0.77;63.72
72525;BME280;60547;48.502;8.996;2023-04-05T00:05:45;98439.91;;;0.75;64.53
72525;BME280;60547;48.502;8.996;2023-04-05T00:08:11;98436.22;;;0.68;64.68
72525;BME280;60547;48.502;8.996;2023-04-05T00:10:49;98441.34;;;0.69;64.54
72525;BME280;60547;48.502;8.996;2023-04-05T00:13:15;98443.13;;;0.61;65.30
72525;BME280;60547;48.502;8.996;2023-04-05T00:15:41;98430.78;;;0.52;65.43
72525;BME280;60547;48.502;8.996;2023-04-05T00:18:06;98421.00;;;0.51;63.80
72525;BME280;60547;48.502;8.996;2023-04-05T00:20:32;98431.31;;;0.57;64.32
72525;BME280;60547;48.502;8.996;2023-04-05T00:22:58;98435.19;;;0.56;63.59
72525;BME280;60547;48.502;8.996;2023-04-05T00:25:24;98429.28;;;0.54;64.33
72525;BME280;60547;48.502;8.996;2023-04-05T00:27:50;98417.97;;;0.56;63.30
72525;BME280;60547;48.502;8.996;2023-04-05T00:30:15;98414.00;;;0.53;64.05
72525;BME280;60547;48.502;8.996;2023-04-05T00:32:48;98421.44;;;0.53;64.72
72525;BME280;60547;48.502;8.996;2023-04-05T00:35:16;98420.44;;;0.61;64.35
72525;BME280;60547;48.502;8.996;2023-04-05T00:37:41;98412.50;;;0.56;64.74
72525;BME280;60547;48.502;8.996;2023-04-05T00:40:07;98416.38;;;0.55;64.44
72525;BME280;60547;48.502;8.996;2023-04-05T00:42:33;98416.03;;;0.56;64.69
72525;BME280;60547;48.502;8.996;2023-04-05T00:44:59;98417.63;;;0.57;64.42
72525;BME280;60547;48.502;8.996;2023-04-05T00:47:25;98415.69;;;0.58;64.53
72525;BME280;60547;48.502;8.996;2023-04-05T00:49:50;98412.44;;;0.52;64.79
72525;BME280;60547;48.502;8.996;2023-04-05T00:52:17;98412.06;;;0.54;64.69
72525;BME280;60547;48.502;8.996;2023-04-05T00:54:43;98410.91;;;0.55;65.14
72525;BME280;60547;48.502;8.996;2023-04-05T00:57:09;98409.59;;;0.49;65.33
72525;BME280;60547;48.502;8.996;2023-04-05T00:59:35;98403.25;;;0.45;65.17
72525;BME280;60547;48.502;8.996;2023-04-05T01:02:13;98403.78;;;0.50;66.21
72525;BME280;60547;48.502;8.996;2023-04-05T01:04:43;98389.94;;;0.43;66.33
72525;BME280;60547;48.502;8.996;2023-04-05T01:09:58;98401.41;;;0.49;66.20
72525;BME280;60547;48.502;8.996;2023-04-05T01:12:29;98393.97;;;0.49;66.73
72525;BME280;60547;48.502;8.996;2023-04-05T01:14:59;98388.25;;;0.39;67.25
72525;BME280;60547;48.502;8.996;2023-04-05T01:17:26;98395.75;;;0.42;67.03
72525;BME280;60547;48.502;8.996;2023-04-05T01:19:57;98391.09;;;0.42;66.50
72525;BME280;60547;48.502;8.996;2023-04-05T01:30:51;98374.50;;;0.35;67.41
72525;BME280;60547;48.502;8.996;2023-04-05T01:33:24;98376.88;;;0.37;67.59
72525;BME280;60547;48.502;8.996;2023-04-05T01:36:23;98379.53;;;0.33;68.00
72525;BME280;60547;48.502;8.996;2023-04-05T01:38:52;98366.50;;;0.26;67.94
72525;BME280;60547;48.502;8.996;2023-04-05T01:41:20;98362.16;;;0.25;68.78
72525;BME280;60547;48.502;8.996;2023-04-05T01:43:45;98368.00;;;0.24;68.44
72525;BME280;60547;48.502;8.996;2023-04-05T01:46:11;98361.72;;;0.23;67.07
72525;BME280;60547;48.502;8.996;2023-04-05T01:48:36;98358.13;;;0.19;68.42
72525;BME280;60547;48.502;8.996;2023-04-05T01:51:02;98360.50;;;0.21;68.20
72525;BME280;60547;48.502;8.996;2023-04-05T01:53:27;98355.22;;;0.12;68.85
72525;BME280;60547;48.502;8.996;2023-04-05T01:55:53;98356.09;;;0.16;68.67
72525;BME280;60547;48.502;8.996;2023-04-05T01:58:18;98350.19;;;0.14;69.16
72525;BME280;60547;48.502;8.996;2023-04-05T02:00:44;98355.22;;;0.12;69.44
72525;BME280;60547;48.502;8.996;2023-04-05T02:03:09;98352.94;;;0.14;69.59
72525;BME280;60547;48.502;8.996;2023-04-05T02:05:35;98355.59;;;0.11;69.29
72525;BME280;60547;48.502;8.996;2023-04-05T02:08:00;98348.97;;;0.12;69.58
72525;BME280;60547;48.502;8.996;2023-04-05T02:10:26;98352.50;;;0.12;70.24
72525;BME280;60547;48.502;8.996;2023-04-05T02:12:51;98347.28;;;0.07;70.22
72525;BME280;60547;48.502;8.996;2023-04-05T02:15:17;98345.72;;;0.06;70.18
72525;BME280;60547;48.502;8.996;2023-04-05T02:17:42;98342.38;;;-0.03;69.89
72525;BME280;60547;48.502;8.996;2023-04-05T02:20:10;98343.97;;;-0.02;69.86
72525;BME280;60547;48.502;8.996;2023-04-05T02:22:37;98342.81;;;-0.01;70.69
72525;BME280;60547;48.502;8.996;2023-04-05T02:25:07;98340.06;;;-0.01;69.93
72525;BME280;60547;48.502;8.996;2023-04-05T02:27:33;98342.72;;;-0.05;70.69
72525;BME280;60547;48.502;8.996;2023-04-05T02:29:59;98343.34;;;0.05;70.30
72525;BME280;60547;48.502;8.996;2023-04-05T02:32:25;98333.38;;;-0.04;70.82
72525;BME280;60547;48.502;8.996;2023-04-05T02:34:50;98326.59;;;-0.10;71.10
72525;BME280;60547;48.502;8.996;2023-04-05T02:37:18;98326.25;;;-0.08;70.92
72525;BME280;60547;48.502;8.996;2023-04-05T02:39:43;98329.69;;;-0.11;70.86
72525;BME280;60547;48.502;8.996;2023-04-05T02:42:09;98336.66;;;-0.14;71.13
72525;BME280;60547;48.502;8.996;2023-04-05T02:44:34;98338.16;;;-0.16;70.76
72525;BME280;60547;48.502;8.996;2023-04-05T02:47:00;98336.56;;;-0.17;70.60
72525;BME280;60547;48.502;8.996;2023-04-05T02:49:25;98327.06;;;-0.23;70.82
72525;BME280;60547;48.502;8.996;2023-04-05T02:51:51;98327.06;;;-0.23;70.48
72525;BME280;60547;48.502;8.996;2023-04-05T02:54:16;98332.53;;;-0.23;70.74
72525;BME280;60547;48.502;8.996;2023-04-05T02:56:42;98331.38;;;-0.22;71.13
72525;BME280;60547;48.502;8.996;2023-04-05T02:59:07;98323.44;;;-0.27;71.38
72525;BME280;60547;48.502;8.996;2023-04-05T03:01:33;98324.59;;;-0.28;71.62
72525;BME280;60547;48.502;8.996;2023-04-05T03:04:01;98331.38;;;-0.22;71.43
72525;BME280;60547;48.502;8.996;2023-04-05T03:06:26;98328.56;;;-0.26;71.60
72525;BME280;60547;48.502;8.996;2023-04-05T03:08:52;98317.38;;;-0.37;71.94
72525;BME280;60547;48.502;8.996;2023-04-05T03:11:18;98318.78;;;-0.43;71.98
72525;BME280;60547;48.502;8.996;2023-04-05T03:13:43;98328.94;;;-0.43;71.79
72525;BME280;60547;48.502;8.996;2023-04-05T03:16:09;98324.78;;;-0.53;72.08
72525;BME280;60547;48.502;8.996;2023-04-05T03:18:35;98336.34;;;-0.44;72.21
72525;BME280;60547;48.502;8.996;2023-04-05T03:21:00;98331.13;;;-0.49;72.33
72525;BME280;60547;48.502;8.996;2023-04-05T03:23:28;98318.63;;;-0.50;72.30
72525;BME280;60547;48.502;8.996;2023-04-05T03:26:03;98319.41;;;-0.49;72.47
72525;BME280;60547;48.502;8.996;2023-04-05T03:28:30;98327.97;;;-0.51;72.59
72525;BME280;60547;48.502;8.996;2023-04-05T03:30:58;98324.00;;;-0.53;72.09
72525;BME280;60547;48.502;8.996;2023-04-05T03:33:24;98334.03;;;-0.57;72.54
72525;BME280;60547;48.502;8.996;2023-04-05T03:35:50;98325.31;;;-0.63;72.87
72525;BME280;60547;48.502;8.996;2023-04-05T03:38:15;98329.28;;;-0.60;72.93
72525;BME280;60547;48.502;8.996;2023-04-05T03:40:41;98334.66;;;-0.64;73.63
72525;BME280;60547;48.502;8.996;2023-04-05T03:43:06;98323.63;;;-0.68;73.31
72525;BME280;60547;48.502;8.996;2023-04-05T03:45:32;98327.06;;;-0.71;73.53
72525;BME280;60547;48.502;8.996;2023-04-05T03:47:58;98320.81;;;-0.71;73.50
72525;BME280;60547;48.502;8.996;2023-04-05T03:50:24;98328.91;;;-0.75;73.09
72525;BME280;60547;48.502;8.996;2023-04-05T03:52:51;98330.41;;;-0.77;73.58
72525;BME280;60547;48.502;8.996;2023-04-05T03:55:17;98329.09;;;-0.83;73.42
72525;BME280;60547;48.502;8.996;2023-04-05T03:57:42;98335.69;;;-0.84;73.85
72525;BME280;60547;48.502;8.996;2023-04-05T04:00:09;98335.44;;;-0.79;72.29
72525;BME280;60547;48.502;8.996;2023-04-05T04:02:46;98328.72;;;-0.82;72.30
72525;BME280;60547;48.502;8.996;2023-04-05T04:05:13;98322.13;;;-0.81;72.10
72525;BME280;60547;48.502;8.996;2023-04-05T04:07:40;98334.38;;;-0.75;72.41
72525;BME280;60547;48.502;8.996;2023-04-05T04:10:11;98335.25;;;-0.71;72.10
72525;BME280;60547;48.502;8.996;2023-04-05T04:12:37;98340.44;;;-0.81;72.73
72525;BME280;60547;48.502;8.996;2023-04-05T04:15:04;98325.56;;;-0.84;72.65
72525;BME280;60547;48.502;8.996;2023-04-05T04:17:34;98327.75;;;-0.89;72.78
72525;BME280;60547;48.502;8.996;2023-04-05T04:20:02;98329.06;;;-0.99;73.60
72525;BME280;60547;48.502;8.996;2023-04-05T04:22:41;98326.69;;;-1.01;73.30
72525;BME280;60547;48.502;8.996;2023-04-05T04:25:09;98327.63;;;-1.09;74.00
72525;BME280;60547;48.502;8.996;2023-04-05T04:27:39;98321.03;;;-1.08;73.97
72525;BME280;60547;48.502;8.996;2023-04-05T04:30:10;98320.94;;;-1.11;73.89
72525;BME280;60547;48.502;8.996;2023-04-05T04:32:45;98321.72;;;-1.11;74.45
72525;BME280;60547;48.502;8.996;2023-04-05T04:35:28;98323.31;;;-1.10;73.86
72525;BME280;60547;48.502;8.996;2023-04-05T04:38:03;98318.56;;;-1.13;73.98
72525;BME280;60547;48.502;8.996;2023-04-05T04:40:37;98319.69;;;-1.14;74.47
72525;BME280;60547;48.502;8.996;2023-04-05T04:43:15;98307.44;;;-1.20;74.37
72525;BME280;60547;48.502;8.996;2023-04-05T04:45:51;98319.34;;;-1.12;74.34
72525;BME280;60547;48.502;8.996;2023-04-05T04:48:19;98316.06;;;-1.18;73.89
72525;BME280;60547;48.502;8.996;2023-04-05T04:50:48;98320.41;;;-1.17;74.14
72525;BME280;60547;48.502;8.996;2023-04-05T04:53:16;98322.44;;;-1.14;74.33
72525;BME280;60547;48.502;8.996;2023-04-05T04:55:43;98315.63;;;-1.20;74.42
72525;BME280;60547;48.502;8.996;2023-04-05T04:58:10;98322.47;;;-1.26;74.73
72525;BME280;60547;48.502;8.996;2023-04-05T05:00:40;98333.03;;;-1.52;75.74
72525;BME280;60547;48.502;8.996;2023-04-05T05:03:09;98332.66;;;-1.39;76.07
72525;BME280;60547;48.502;8.996;2023-04-05T05:05:45;98325.56;;;-1.27;75.12
72525;BME280;60547;48.502;8.996;2023-04-05T05:08:12;98330.47;;;-1.33;74.96
72525;BME280;60547;48.502;8.996;2023-04-05T05:10:38;98328.88;;;-1.34;75.14
72525;BME280;60547;48.502;8.996;2023-04-05T05:13:03;98331.16;;;-1.36;75.33
72525;BME280;60547;48.502;8.996;2023-04-05T05:15:29;98326.84;;;-1.37;75.22
72525;BME280;60547;48.502;8.996;2023-04-05T05:17:55;98340.94;;;-1.35;75.41
72525;BME280;60547;48.502;8.996;2023-04-05T05:20:23;98337.75;;;-1.37;75.81
72525;BME280;60547;48.502;8.996;2023-04-05T05:22:49;98342.19;;;-1.33;75.11
72525;BME280;60547;48.502;8.996;2023-04-05T05:25:15;98344.47;;;-1.35;74.83
72525;BME280;60547;48.502;8.996;2023-04-05T05:27:41;98343.06;;;-1.28;74.95
72525;BME280;60547;48.502;8.996;2023-04-05T05:30:07;98340.00;;;-1.27;74.35
72525;BME280;60547;48.502;8.996;2023-04-05T05:32:33;98347.50;;;-1.24;74.71
72525;BME280;60547;48.502;8.996;2023-04-05T05:34:59;98348.84;;;-1.18;73.83
72525;BME280;60547;48.502;8.996;2023-04-05T05:37:31;98343.38;;;-1.18;73.63
72525;BME280;60547;48.502;8.996;2023-04-05T05:39:57;98345.75;;;-1.16;73.15
72525;BME280;60547;48.502;8.996;2023-04-05T05:42:22;98338.25;;;-1.19;73.49
72525;BME280;60547;48.502;8.996;2023-04-05T05:44:48;98349.19;;;-1.19;73.23
72525;BME280;60547;48.502;8.996;2023-04-05T05:47:13;98339.59;;;-1.13;73.68
72525;BME280;60547;48.502;8.996;2023-04-05T05:49:39;98342.78;;;-1.11;74.13
72525;BME280;60547;48.502;8.996;2023-04-05T05:52:05;98344.56;;;-1.03;73.59
72525;BME280;60547;48.502;8.996;2023-04-05T05:54:30;98340.78;;;-0.99;73.54
72525;BME280;60547;48.502;8.996;2023-04-05T05:57:03;98343.25;;;-0.93;74.11
72525;BME280;60547;48.502;8.996;2023-04-05T05:59:29;98338.78;;;-0.86;73.22
72525;BME280;60547;48.502;8.996;2023-04-05T06:01:56;98348.13;;;-0.71;72.86
72525;BME280;60547;48.502;8.996;2023-04-05T06:04:22;98329.53;;;-0.81;73.38
72525;BME280;60547;48.502;8.996;2023-04-05T06:06:47;98350.34;;;-0.61;73.13
72525;BME280;60547;48.502;8.996;2023-04-05T06:09:13;98346.81;;;-0.30;72.28
72525;BME280;60547;48.502;8.996;2023-04-05T06:11:40;98338.94;;;0.00;71.21
72525;BME280;60547;48.502;8.996;2023-04-05T06:14:06;98346.06;;;0.40;69.59
72525;BME280;60547;48.502;8.996;2023-04-05T06:16:31;98344.56;;;0.61;68.50
72525;BME280;60547;48.502;8.996;2023-04-05T06:18:57;98341.47;;;0.82;67.99
72525;BME280;60547;48.502;8.996;2023-04-05T06:21:23;98346.50;;;1.00;67.67
72525;BME280;60547;48.502;8.996;2023-04-05T06:23:48;98346.47;;;1.19;66.79
72525;BME280;60547;48.502;8.996;2023-04-05T06:26:16;98339.53;;;1.25;65.45
72525;BME280;60547;48.502;8.996;2023-04-05T06:28:43;98343.63;;;1.35;65.87
72525;BME280;60547;48.502;8.996;2023-04-05T06:31:13;98344.88;;;1.18;66.37
72525;BME280;60547;48.502;8.996;2023-04-05T06:33:40;98348.78;;;1.17;67.48
72525;BME280;60547;48.502;8.996;2023-04-05T06:36:06;98341.06;;;1.22;67.07
72525;BME280;60547;48.502;8.996;2023-04-05T06:38:31;98343.38;;;1.20;67.40
72525;BME280;60547;48.502;8.996;2023-04-05T06:40:57;98338.78;;;1.05;67.44
72525;BME280;60547;48.502;8.996;2023-04-05T06:43:22;98333.72;;;1.07;67.88
72525;BME280;60547;48.502;8.996;2023-04-05T06:45:48;98343.56;;;1.31;67.00
72525;BME280;60547;48.502;8.996;2023-04-05T06:48:13;98343.50;;;1.50;66.52
72525;BME280;60547;48.502;8.996;2023-04-05T06:50:39;98340.94;;;1.61;66.25
72525;BME280;60547;48.502;8.996;2023-04-05T06:53:05;98338.91;;;1.81;65.60
72525;BME280;60547;48.502;8.996;2023-04-05T06:55:31;98350.00;;;1.88;65.63
72525;BME280;60547;48.502;8.996;2023-04-05T06:57:57;98344.69;;;1.99;64.57
72525;BME280;60547;48.502;8.996;2023-04-05T07:00:22;98335.34;;;2.03;64.11
72525;BME280;60547;48.502;8.996;2023-04-05T07:02:48;98343.38;;;2.15;64.40
72525;BME280;60547;48.502;8.996;2023-04-05T07:05:15;98354.03;;;2.20;63.75
72525;BME280;60547;48.502;8.996;2023-04-05T07:07:42;98354.97;;;2.05;64.26
72525;BME280;60547;48.502;8.996;2023-04-05T07:10:09;98360.56;;;2.12;64.08
72525;BME280;60547;48.502;8.996;2023-04-05T07:12:35;98357.72;;;2.32;63.54
72525;BME280;60547;48.502;8.996;2023-04-05T07:15:01;98345.78;;;2.47;63.10
72525;BME280;60547;48.502;8.996;2023-04-05T07:17:26;98348.41;;;2.40;62.26
72525;BME280;60547;48.502;8.996;2023-04-05T07:19:52;98347.53;;;2.62;61.32
72525;BME280;60547;48.502;8.996;2023-04-05T07:22:18;98341.81;;;2.74;61.20
72525;BME280;60547;48.502;8.996;2023-04-05T07:24:44;98347.16;;;2.34;61.12
72525;BME280;60547;48.502;8.996;2023-04-05T07:27:11;98335.16;;;2.45;61.55
72525;BME280;60547;48.502;8.996;2023-04-05T07:29:37;98345.03;;;2.80;60.94
72525;BME280;60547;48.502;8.996;2023-04-05T07:32:05;98343.56;;;2.89;61.42
72525;BME280;60547;48.502;8.996;2023-04-05T07:34:32;98342.91;;;3.00;61.62
72525;BME280;60547;48.502;8.996;2023-04-05T07:36:58;98342.34;;;3.20;60.58
72525;BME280;60547;48.502;8.996;2023-04-05T07:39:24;98333.94;;;3.06;60.79
72525;BME280;60547;48.502;8.996;2023-04-05T07:41:49;98333.03;;;3.32;60.66
72525;BME280;60547;48.502;8.996;2023-04-05T07:44:15;98331.19;;;3.43;60.05
72525;BME280;60547;48.502;8.996;2023-04-05T07:46:41;98339.28;;;3.70;59.87
72525;BME280;60547;48.502;8.996;2023-04-05T07:49:10;98343.78;;;3.92;58.17
72525;BME280;60547;48.502;8.996;2023-04-05T07:51:35;98338.72;;;3.98;57.88
72525;BME280;60547;48.502;8.996;2023-04-05T07:54:03;98338.28;;;3.92;58.04
72525;BME280;60547;48.502;8.996;2023-04-05T07:56:30;98342.53;;;3.82;58.93
72525;BME280;60547;48.502;8.996;2023-04-05T07:58:56;98326.41;;;3.81;59.24
72525;BME280;60547;48.502;8.996;2023-04-05T08:01:22;98302.38;;;3.78;59.00
72525;BME280;60547;48.502;8.996;2023-04-05T08:03:52;98343.28;;;3.35;60.38
72525;BME280;60547;48.502;8.996;2023-04-05T08:06:18;98325.56;;;3.77;59.10
72525;BME280;60547;48.502;8.996;2023-04-05T08:08:45;98336.38;;;4.00;59.29
72525;BME280;60547;48.502;8.996;2023-04-05T08:11:11;98331.28;;;4.02;58.24
72525;BME280;60547;48.502;8.996;2023-04-05T08:13:37;98337.91;;;3.94;58.76
72525;BME280;60547;48.502;8.996;2023-04-05T08:16:06;98336.81;;;4.05;58.80
72525;BME280;60547;48.502;8.996;2023-04-05T08:18:32;98329.13;;;4.36;57.85
72525;BME280;60547;48.502;8.996;2023-04-05T08:20:58;98332.28;;;4.34;58.31
72525;BME280;60547;48.502;8.996;2023-04-05T08:23:23;98319.25;;;4.28;58.15
72525;BME280;60547;48.502;8.996;2023-04-05T08:25:49;98329.63;;;4.52;57.62
72525;BME280;60547;48.502;8.996;2023-04-05T08:28:16;98323.38;;;4.62;57.29
72525;BME280;60547;48.502;8.996;2023-04-05T08:30:44;98330.09;;;4.68;56.15
72525;BME280;60547;48.502;8.996;2023-04-05T08:33:11;98330.78;;;4.51;56.98
72525;BME280;60547;48.502;8.996;2023-04-05T08:35:37;98335.41;;;4.33;56.63
72525;BME280;60547;48.502;8.996;2023-04-05T08:38:06;98338.72;;;4.63;55.73
72525;BME280;60547;48.502;8.996;2023-04-05T08:40:41;98331.47;;;4.30;55.71
72525;BME280;60547;48.502;8.996;2023-04-05T08:43:21;98323.00;;;4.67;54.63
72525;BME280;60547;48.502;8.996;2023-04-05T08:45:51;98319.88;;;4.72;54.37
72525;BME280;60547;48.502;8.996;2023-04-05T08:48:18;98327.00;;;4.80;54.78
72525;BME280;60547;48.502;8.996;2023-04-05T08:50:53;98325.41;;;4.79;53.54
72525;BME280;60547;48.502;8.996;2023-04-05T08:53:19;98326.59;;;4.78;54.01
72525;BME280;60547;48.502;8.996;2023-04-05T08:55:48;98326.69;;;5.03;52.75
72525;BME280;60547;48.502;8.996;2023-04-05T08:58:19;98330.66;;;5.13;53.17
72525;BME280;60547;48.502;8.996;2023-04-05T09:00:46;98327.53;;;5.22;52.31
72525;BME280;60547;48.502;8.996;2023-04-05T09:03:17;98328.31;;;5.29;47.23
72525;BME280;60547;48.502;8.996;2023-04-05T09:05:45;98326.38;;;5.40;49.65
72525;BME280;60547;48.502;8.996;2023-04-05T09:08:13;98329.56;;;5.57;44.87
72525;BME280;60547;48.502;8.996;2023-04-05T09:10:39;98327.59;;;5.68;44.63
72525;BME280;60547;48.502;8.996;2023-04-05T09:13:04;98320.09;;;5.68;43.72
72525;BME280;60547;48.502;8.996;2023-04-05T09:15:30;98320.50;;;5.74;42.55
72525;BME280;60547;48.502;8.996;2023-04-05T09:17:56;98314.56;;;5.50;42.21
72525;BME280;60547;48.502;8.996;2023-04-05T09:20:22;98319.31;;;5.82;42.83
72525;BME280;60547;48.502;8.996;2023-04-05T09:22:48;98315.78;;;5.85;41.28
72525;BME280;60547;48.502;8.996;2023-04-05T09:25:52;98320.13;;;5.90;42.15
72525;BME280;60547;48.502;8.996;2023-04-05T09:28:17;98312.63;;;6.04;41.21
72525;BME280;60547;48.502;8.996;2023-04-05T09:30:46;98309.47;;;6.09;40.49
72525;BME280;60547;48.502;8.996;2023-04-05T09:33:15;98311.06;;;6.03;41.20
72525;BME280;60547;48.502;8.996;2023-04-05T09:35:43;98312.97;;;6.42;41.78
72525;BME280;60547;48.502;8.996;2023-04-05T09:38:08;98309.06;;;6.11;40.39
72525;BME280;60547;48.502;8.996;2023-04-05T09:40:47;98309.84;;;6.15;39.68
72525;BME280;60547;48.502;8.996;2023-04-05T09:43:39;98306.69;;;6.27;39.37
72525;BME280;60547;48.502;8.996;2023-04-05T09:46:05;98310.59;;;6.44;39.82
72525;BME280;60547;48.502;8.996;2023-04-05T09:48:47;98309.38;;;6.52;39.53
72525;BME280;60547;48.502;8.996;2023-04-05T09:51:14;98303.38;;;6.71;40.94
72525;BME280;60547;48.502;8.996;2023-04-05T09:54:18;98307.28;;;6.88;39.19
72525;BME280;60547;48.502;8.996;2023-04-05T09:56:53;98293.84;;;6.83;38.65
72525;BME280;60547;48.502;8.996;2023-04-05T09:59:20;98299.44;;;6.72;39.65
72525;BME280;60547;48.502;8.996;2023-04-05T10:01:50;98286.59;;;7.14;39.75
72525;BME280;60547;48.502;8.996;2023-04-05T10:04:18;98291.09;;;7.53;38.64
72525;BME280;60547;48.502;8.996;2023-04-05T10:06:44;98282.34;;;7.58;38.35
72525;BME280;60547;48.502;8.996;2023-04-05T10:09:10;98290.16;;;7.70;36.94
72525;BME280;60547;48.502;8.996;2023-04-05T10:11:37;98298.75;;;7.83;37.97
72525;BME280;60547;48.502;8.996;2023-04-05T10:14:05;98289.78;;;8.13;37.89
72525;BME280;60547;48.502;8.996;2023-04-05T10:16:32;98279.38;;;8.24;36.57
72525;BME280;60547;48.502;8.996;2023-04-05T10:19:02;98288.31;;;7.53;36.43
72525;BME280;60547;48.502;8.996;2023-04-05T10:21:34;98285.13;;;8.02;35.19
72525;BME280;60547;48.502;8.996;2023-04-05T10:24:08;98279.78;;;8.22;38.01
72525;BME280;60547;48.502;8.996;2023-04-05T10:26:46;98271.59;;;8.12;37.52
72525;BME280;60547;48.502;8.996;2023-04-05T10:29:19;98260.34;;;7.85;35.25
72525;BME280;60547;48.502;8.996;2023-04-05T10:31:54;98272.53;;;7.94;35.60
72525;BME280;60547;48.502;8.996;2023-04-05T10:34:44;98266.34;;;8.21;36.21
72525;BME280;60547;48.502;8.996;2023-04-05T10:37:28;98260.38;;;8.22;34.81
72525;BME280;60547;48.502;8.996;2023-04-05T10:39:55;98261.56;;;8.93;36.05
72525;BME280;60547;48.502;8.996;2023-04-05T10:42:27;98250.38;;;8.69;36.24
72525;BME280;60547;48.502;8.996;2023-04-05T10:45:02;98261.13;;;8.26;34.59
72525;BME280;60547;48.502;8.996;2023-04-05T10:47:31;98253.78;;;8.81;35.36
72525;BME280;60547;48.502;8.996;2023-04-05T10:50:02;98260.16;;;8.47;35.76
72525;BME280;60547;48.502;8.996;2023-04-05T10:52:28;98263.53;;;9.23;34.55
72525;BME280;60547;48.502;8.996;2023-04-05T10:54:56;98252.16;;;9.41;34.37
72525;BME280;60547;48.502;8.996;2023-04-05T10:57:24;98252.06;;;9.71;34.66
72525;BME280;60547;48.502;8.996;2023-04-05T10:59:50;98253.03;;;9.84;34.16
72525;BME280;60547;48.502;8.996;2023-04-05T11:02:17;98246.91;;;9.46;33.82
72525;BME280;60547;48.502;8.996;2023-04-05T11:04:43;98258.66;;;10.04;34.25
72525;BME280;60547;48.502;8.996;2023-04-05T11:07:16;98250.44;;;9.23;32.59
72525;BME280;60547;48.502;8.996;2023-04-05T11:09:54;98248.84;;;8.95;33.22
72525;BME280;60547;48.502;8.996;2023-04-05T11:15:27;98253.47;;;9.83;34.66
72525;BME280;60547;48.502;8.996;2023-04-05T11:21:04;98239.63;;;10.65;31.43
72525;BME280;60547;48.502;8.996;2023-04-05T11:23:30;98239.63;;;10.65;33.50
72525;BME280;60547;48.502;8.996;2023-04-05T11:26:03;98237.91;;;10.32;31.95
72525;BME280;60547;48.502;8.996;2023-04-05T11:28:36;98245.47;;;10.31;31.18
72525;BME280;60547;48.502;8.996;2023-04-05T11:31:17;98230.53;;;11.01;31.45
72525;BME280;60547;48.502;8.996;2023-04-05T11:36:08;98222.88;;;11.05;32.30
72525;BME280;60547;48.502;8.996;2023-04-05T11:38:35;98217.81;;;10.44;31.85
72525;BME280;60547;48.502;8.996;2023-04-05T11:41:05;98216.81;;;11.26;31.78
72525;BME280;60547;48.502;8.996;2023-04-05T11:43:32;98212.97;;;11.20;30.71
72525;BME280;60547;48.502;8.996;2023-04-05T11:46:02;98215.03;;;10.44;31.33
72525;BME280;60547;48.502;8.996;2023-04-05T11:48:29;98212.56;;;10.86;29.83
72525;BME280;60547;48.502;8.996;2023-04-05T11:50:55;98208.91;;;11.41;32.00
72525;BME280;60547;48.502;8.996;2023-04-05T11:53:21;98205.94;;;11.64;31.47
72525;BME280;60547;48.502;8.996;2023-04-05T11:55:49;98198.28;;;11.20;31.35
72525;BME280;60547;48.502;8.996;2023-04-05T11:58:17;98202.22;;;11.55;32.11
72525;BME280;60547;48.502;8.996;2023-04-05T12:00:44;98196.03;;;11.63;30.55
72525;BME280;60547;48.502;8.996;2023-04-05T12:03:14;98195.72;;;12.07;31.88
72525;BME280;60547;48.502;8.996;2023-04-05T12:05:50;98190.38;;;11.83;31.55
72525;BME280;60547;48.502;8.996;2023-04-05T12:08:19;98175.13;;;12.46;29.93
72525;BME280;60547;48.502;8.996;2023-04-05T12:10:55;98183.06;;;12.18;29.39
72525;BME280;60547;48.502;8.996;2023-04-05T12:13:27;98181.19;;;12.70;30.12
72525;BME280;60547;48.502;8.996;2023-04-05T12:15:56;98179.91;;;13.12;29.95
72525;BME280;60547;48.502;8.996;2023-04-05T12:18:24;98179.69;;;12.11;28.29
72525;BME280;60547;48.502;8.996;2023-04-05T12:20:52;98178.50;;;12.24;29.08
72525;BME280;60547;48.502;8.996;2023-04-05T12:23:18;98168.06;;;12.41;30.72
72525;BME280;60547;48.502;8.996;2023-04-05T12:25:53;98180.34;;;11.37;29.55
72525;BME280;60547;48.502;8.996;2023-04-05T12:28:19;98163.97;;;11.07;29.51
72525;BME280;60547;48.502;8.996;2023-04-05T12:30:48;98163.38;;;11.80;28.72
72525;BME280;60547;48.502;8.996;2023-04-05T12:33:14;98163.72;;;11.50;29.29
72525;BME280;60547;48.502;8.996;2023-04-05T12:35:40;98165.81;;;12.36;30.15
72525;BME280;60547;48.502;8.996;2023-04-05T12:38:06;98157.03;;;12.50;29.46
72525;BME280;60547;48.502;8.996;2023-04-05T12:40:34;98157.78;;;12.92;29.67
72525;BME280;60547;48.502;8.996;2023-04-05T12:43:01;98151.84;;;13.16;28.55
72525;BME280;60547;48.502;8.996;2023-04-05T12:45:28;98158.44;;;12.97;27.86
72525;BME280;60547;48.502;8.996;2023-04-05T12:47:58;98151.84;;;13.03;27.30
72525;BME280;60547;48.502;8.996;2023-04-05T12:50:28;98155.53;;;13.13;26.66
72525;BME280;60547;48.502;8.996;2023-04-05T12:55:21;98148.63;;;13.17;27.48
72525;BME280;60547;48.502;8.996;2023-04-05T12:57:57;98152.28;;;12.89;27.68
72525;BME280;60547;48.502;8.996;2023-04-05T13:00:27;98137.16;;;13.63;28.21
72525;BME280;60547;48.502;8.996;2023-04-05T13:02:55;98138.47;;;13.71;27.57
72525;BME280;60547;48.502;8.996;2023-04-05T13:05:22;98145.13;;;13.13;27.08
72525;BME280;60547;48.502;8.996;2023-04-05T13:07:48;98136.03;;;12.46;27.84
72525;BME280;60547;48.502;8.996;2023-04-05T13:10:15;98136.09;;;12.84;27.73
72525;BME280;60547;48.502;8.996;2023-04-05T13:12:41;98123.91;;;13.29;27.27
72525;BME280;60547;48.502;8.996;2023-04-05T13:15:07;98131.16;;;12.75;27.55
72525;BME280;60547;48.502;8.996;2023-04-05T13:17:33;98126.03;;;13.24;29.12
72525;BME280;60547;48.502;8.996;2023-04-05T13:19:58;98118.44;;;12.87;27.37
72525;BME280;60547;48.502;8.996;2023-04-05T13:22:23;98112.50;;;12.85;27.34
72525;BME280;60547;48.502;8.996;2023-04-05T13:24:49;98120.88;;;13.10;27.83
72525;BME280;60547;48.502;8.996;2023-04-05T13:27:16;98116.72;;;13.53;28.82
72525;BME280;60547;48.502;8.996;2023-04-05T13:29:41;98107.13;;;13.16;25.70
72525;BME280;60547;48.502;8.996;2023-04-05T13:32:07;98096.31;;;13.05;26.16